sensor_id;sensor_type;location;lat;lon;timestamp;pressure;altitude;pressure_sealevel;temperature;humidity
85082;BME280;75424;50.762;7.178;2024-03-17T00:00:32;101723.44;;;5.43;96.35
85082;BME280;75424;50.762;7.178;2024-03-17T00:02:57;101715.53;;;5.40;96.46
85082;BME280;75424;50.762;7.178;2024-03-17T00:05:22;101719.06;;;5.44;97.14
85082;BME280;75424;50.762;7.178;2024-03-17T00:07:48;101703.25;;;5.45;96.79
85082;BME280;75424;50.762;7.178;2024-03-17T00:10:13;101702.34;;;5.49;96.45
85082;BME280;75424;50.762;7.178;2024-03-17T00:12:40;101699.69;;;5.49;97.02
85082;BME280;75424;50.762;7.178;2024-03-17T00:15:06;101705.00;;;5.43;96.92
85082;BME280;75424;50.762;7.178;2024-03-17T00:17:32;101704.16;;;5.35;97.09
85082;BME280;75424;50.762;7.178;2024-03-17T00:19:59;101696.28;;;5.29;96.97
85082;BME280;75424;50.762;7.178;2024-03-17T00:22:27;101697.25;;;5.18;96.85
85082;BME280;75424;50.762;7.178;2024-03-17T00:24:52;101695.53;;;5.05;97.21
85082;BME280;75424;50.762;7.178;2024-03-17T00:27:17;101699.94;;;4.97;97.25
85082;BME280;75424;50.762;7.178;2024-03-17T00:29:42;101699.97;;;4.94;97.17
85082;BME280;75424;50.762;7.178;2024-03-17T00:32:08;101698.22;;;4.93;97.38
85082;BME280;75424;50.762;7.178;2024-03-17T00:34:35;101693.00;;;4.85;97.45
85082;BME280;75424;50.762;7.178;2024-03-17T00:37:00;101689.50;;;4.77;97.08
85082;BME280;75424;50.762;7.178;2024-03-17T00:39:26;101688.66;;;4.68;97.74
85082;BME280;75424;50.762;7.178;2024-03-17T00:41:52;101686.94;;;4.58;97.79
85082;BME280;75424;50.762;7.178;2024-03-17T00:44:17;101686.97;;;4.49;97.51
85082;BME280;75424;50.762;7.178;2024-03-17T00:46:43;101684.34;;;4.47;98.06
85082;BME280;75424;50.762;7.178;2024-03-17T00:49:12;101685.22;;;4.43;97.57
85082;BME280;75424;50.762;7.178;2024-03-17T00:51:38;101680.84;;;4.36;98.13
85082;BME280;75424;50.762;7.178;2024-03-17T00:54:03;101678.22;;;4.27;97.96
85082;BME280;75424;50.762;7.178;2024-03-17T00:56:29;101665.09;;;4.21;97.46
85082;BME280;75424;50.762;7.178;2024-03-17T00:58:54;101672.97;;;4.23;97.74
85082;BME280;75424;50.762;7.178;2024-03-17T01:01:19;101674.72;;;4.25;97.82
85082;BME280;75424;50.762;7.178;2024-03-17T01:03:45;101679.09;;;4.23;97.57
85082;BME280;75424;50.762;7.178;2024-03-17T01:06:11;101675.59;;;4.27;97.76
85082;BME280;75424;50.762;7.178;2024-03-17T01:08:37;101674.72;;;4.18;97.34
85082;BME280;75424;50.762;7.178;2024-03-17T01:11:02;101667.72;;;4.17;97.53
85082;BME280;75424;50.762;7.178;2024-03-17T01:13:28;101671.22;;;4.10;97.98
85082;BME280;75424;50.762;7.178;2024-03-17T01:15:53;101667.75;;;4.06;97.80
85082;BME280;75424;50.762;7.178;2024-03-17T01:18:19;101662.47;;;3.98;97.81
85082;BME280;75424;50.762;7.178;2024-03-17T01:20:44;101654.56;;;3.97;98.42
85082;BME280;75424;50.762;7.178;2024-03-17T01:23:10;101658.09;;;3.94;97.99
85082;BME280;75424;50.762;7.178;2024-03-17T01:25:36;101666.84;;;3.86;97.83
85082;BME280;75424;50.762;7.178;2024-03-17T01:28:03;101659.88;;;3.79;97.80
85082;BME280;75424;50.762;7.178;2024-03-17T01:30:28;101654.59;;;3.77;97.98
85082;BME280;75424;50.762;7.178;2024-03-17T01:32:54;101646.72;;;3.77;98.01
85082;BME280;75424;50.762;7.178;2024-03-17T01:35:20;101649.34;;;3.76;98.16
85082;BME280;75424;50.762;7.178;2024-03-17T01:37:45;101643.22;;;3.68;97.93
85082;BME280;75424;50.762;7.178;2024-03-17T01:40:11;101637.94;;;3.62;98.08
85082;BME280;75424;50.762;7.178;2024-03-17T01:42:37;101634.44;;;3.69;98.49
85082;BME280;75424;50.762;7.178;2024-03-17T01:45:25;101632.69;;;3.74;98.51
85082;BME280;75424;50.762;7.178;2024-03-17T01:47:52;101637.97;;;3.68;97.83
85082;BME280;75424;50.762;7.178;2024-03-17T01:50:18;101630.94;;;3.59;98.54
85082;BME280;75424;50.762;7.178;2024-03-17T01:52:49;101627.44;;;3.54;99.15
85082;BME280;75424;50.762;7.178;2024-03-17T01:55:15;101623.06;;;3.49;98.61
85082;BME280;75424;50.762;7.178;2024-03-17T01:57:41;101623.91;;;3.48;98.39
85082;BME280;75424;50.762;7.178;2024-03-17T02:00:07;101621.31;;;3.43;98.12
85082;BME280;75424;50.762;7.178;2024-03-17T02:02:34;101616.94;;;3.38;98.81
85082;BME280;75424;50.762;7.178;2024-03-17T02:04:59;101618.66;;;3.33;98.88
85082;BME280;75424;50.762;7.178;2024-03-17T02:07:24;101616.03;;;3.28;98.66
85082;BME280;75424;50.762;7.178;2024-03-17T02:09:50;101617.75;;;3.23;98.59
85082;BME280;75424;50.762;7.178;2024-03-17T02:12:15;101619.50;;;3.20;98.57
85082;BME280;75424;50.762;7.178;2024-03-17T02:14:40;101618.63;;;3.18;97.71
85082;BME280;75424;50.762;7.178;2024-03-17T02:17:06;101611.63;;;3.20;98.63
85082;BME280;75424;50.762;7.178;2024-03-17T02:19:31;101609.88;;;3.25;98.65
85082;BME280;75424;50.762;7.178;2024-03-17T02:21:57;101622.16;;;3.32;99.19
85082;BME280;75424;50.762;7.178;2024-03-17T02:24:22;101618.66;;;3.25;99.33
85082;BME280;75424;50.762;7.178;2024-03-17T02:26:47;101618.63;;;3.21;99.15
85082;BME280;75424;50.762;7.178;2024-03-17T02:29:13;101613.38;;;3.16;97.94
85082;BME280;75424;50.762;7.178;2024-03-17T02:31:38;101612.47;;;3.10;98.53
85082;BME280;75424;50.762;7.178;2024-03-17T02:34:03;101608.09;;;3.06;98.61
85082;BME280;75424;50.762;7.178;2024-03-17T02:36:29;101614.22;;;3.03;98.17
85082;BME280;75424;50.762;7.178;2024-03-17T02:38:54;101618.59;;;2.97;97.68
85082;BME280;75424;50.762;7.178;2024-03-17T02:41:42;101617.69;;;2.95;99.24
85082;BME280;75424;50.762;7.178;2024-03-17T02:44:07;101609.81;;;2.87;98.26
85082;BME280;75424;50.762;7.178;2024-03-17T02:46:32;101620.28;;;2.81;98.65
85082;BME280;75424;50.762;7.178;2024-03-17T02:48:59;101617.63;;;2.77;98.37
85082;BME280;75424;50.762;7.178;2024-03-17T02:51:24;101620.28;;;2.75;98.32
85082;BME280;75424;50.762;7.178;2024-03-17T02:53:50;101626.38;;;2.68;98.67
85082;BME280;75424;50.762;7.178;2024-03-17T02:56:17;101621.16;;;2.80;98.90
85082;BME280;75424;50.762;7.178;2024-03-17T02:58:44;101615.91;;;2.77;98.78
85082;BME280;75424;50.762;7.178;2024-03-17T03:01:11;101612.38;;;2.71;98.35
85082;BME280;75424;50.762;7.178;2024-03-17T03:03:37;101624.59;;;2.64;97.75
85082;BME280;75424;50.762;7.178;2024-03-17T03:06:02;101620.22;;;2.59;98.44
85082;BME280;75424;50.762;7.178;2024-03-17T03:08:32;101621.09;;;2.56;98.55
85082;BME280;75424;50.762;7.178;2024-03-17T03:10:59;101619.38;;;2.66;98.75
85082;BME280;75424;50.762;7.178;2024-03-17T03:13:24;101615.84;;;2.64;98.39
85082;BME280;75424;50.762;7.178;2024-03-17T03:15:49;101616.66;;;2.52;98.40
85082;BME280;75424;50.762;7.178;2024-03-17T03:18:15;101617.53;;;2.53;98.30
85082;BME280;75424;50.762;7.178;2024-03-17T03:20:40;101619.28;;;2.52;97.53
85082;BME280;75424;50.762;7.178;2024-03-17T03:23:06;101614.06;;;2.58;98.51
85082;BME280;75424;50.762;7.178;2024-03-17T03:25:31;101621.06;;;2.58;98.77
85082;BME280;75424;50.762;7.178;2024-03-17T03:27:57;101615.75;;;2.46;98.36
85082;BME280;75424;50.762;7.178;2024-03-17T03:30:23;101616.59;;;2.39;98.21
85082;BME280;75424;50.762;7.178;2024-03-17T03:32:49;101607.88;;;2.37;98.24
85082;BME280;75424;50.762;7.178;2024-03-17T03:35:14;101610.47;;;2.34;99.32
85082;BME280;75424;50.762;7.178;2024-03-17T03:37:40;101610.53;;;2.47;99.27
85082;BME280;75424;50.762;7.178;2024-03-17T03:40:07;101606.19;;;2.55;98.58
85082;BME280;75424;50.762;7.178;2024-03-17T03:42:42;101619.34;;;2.64;98.98
85082;BME280;75424;50.762;7.178;2024-03-17T03:45:08;101620.22;;;2.65;98.86
85082;BME280;75424;50.762;7.178;2024-03-17T03:47:34;101611.44;;;2.51;98.20
85082;BME280;75424;50.762;7.178;2024-03-17T03:49:59;101607.88;;;2.38;98.54
85082;BME280;75424;50.762;7.178;2024-03-17T03:52:25;101605.19;;;2.29;98.65
85082;BME280;75424;50.762;7.178;2024-03-17T03:54:53;101608.63;;;2.16;99.06
85082;BME280;75424;50.762;7.178;2024-03-17T03:57:18;101612.03;;;2.05;98.79
85082;BME280;75424;50.762;7.178;2024-03-17T03:59:44;101605.06;;;2.07;98.62
85082;BME280;75424;50.762;7.178;2024-03-17T04:02:09;101605.06;;;2.05;98.67
85082;BME280;75424;50.762;7.178;2024-03-17T04:04:35;101606.78;;;1.99;98.55
85082;BME280;75424;50.762;7.178;2024-03-17T04:07:00;101598.91;;;1.99;98.55
85082;BME280;75424;50.762;7.178;2024-03-17T04:09:25;101604.16;;;2.03;98.73
85082;BME280;75424;50.762;7.178;2024-03-17T04:11:50;101605.88;;;1.97;98.19
85082;BME280;75424;50.762;7.178;2024-03-17T04:14:16;101602.34;;;1.90;98.52
85082;BME280;75424;50.762;7.178;2024-03-17T04:16:42;101604.91;;;1.86;98.05
85082;BME280;75424;50.762;7.178;2024-03-17T04:19:07;101600.56;;;1.85;98.36
85082;BME280;75424;50.762;7.178;2024-03-17T04:21:34;101597.88;;;1.80;98.93
85082;BME280;75424;50.762;7.178;2024-03-17T04:23:59;101591.78;;;1.78;98.29
85082;BME280;75424;50.762;7.178;2024-03-17T04:26:24;101587.44;;;1.82;99.03
85082;BME280;75424;50.762;7.178;2024-03-17T04:28:50;101593.56;;;1.82;98.70
85082;BME280;75424;50.762;7.178;2024-03-17T04:31:15;101595.38;;;1.91;98.61
85082;BME280;75424;50.762;7.178;2024-03-17T04:33:40;101603.28;;;2.00;98.93
85082;BME280;75424;50.762;7.178;2024-03-17T04:36:06;101598.06;;;2.09;99.34
85082;BME280;75424;50.762;7.178;2024-03-17T04:38:33;101595.41;;;2.00;98.89
85082;BME280;75424;50.762;7.178;2024-03-17T04:40:59;101586.66;;;1.95;98.78
85082;BME280;75424;50.762;7.178;2024-03-17T04:43:30;101573.56;;;1.95;98.64
85082;BME280;75424;50.762;7.178;2024-03-17T04:46:01;101577.91;;;1.93;98.69
85082;BME280;75424;50.762;7.178;2024-03-17T04:48:28;101568.28;;;1.92;98.86
85082;BME280;75424;50.762;7.178;2024-03-17T04:50:54;101572.66;;;1.93;99.13
85082;BME280;75424;50.762;7.178;2024-03-17T04:53:19;101582.31;;;2.01;98.98
85082;BME280;75424;50.762;7.178;2024-03-17T04:55:45;101578.81;;;2.02;98.93
85082;BME280;75424;50.762;7.178;2024-03-17T04:58:10;101573.56;;;1.98;99.64
85082;BME280;75424;50.762;7.178;2024-03-17T05:00:36;101573.56;;;1.99;98.84
85082;BME280;75424;50.762;7.178;2024-03-17T05:03:01;101562.25;;;2.08;99.79
85082;BME280;75424;50.762;7.178;2024-03-17T05:05:26;101556.16;;;2.12;99.46
85082;BME280;75424;50.762;7.178;2024-03-17T05:07:52;101564.94;;;2.21;99.46
85082;BME280;75424;50.762;7.178;2024-03-17T05:10:17;101559.78;;;2.38;100.00
85082;BME280;75424;50.762;7.178;2024-03-17T05:12:42;101558.06;;;2.41;99.44
85082;BME280;75424;50.762;7.178;2024-03-17T05:15:08;101554.59;;;2.50;99.73
85082;BME280;75424;50.762;7.178;2024-03-17T05:17:33;101552.84;;;2.50;100.00
85082;BME280;75424;50.762;7.178;2024-03-17T05:19:59;101552.88;;;2.53;99.02
85082;BME280;75424;50.762;7.178;2024-03-17T05:22:24;101553.72;;;2.55;99.34
85082;BME280;75424;50.762;7.178;2024-03-17T05:24:49;101559.00;;;2.60;99.67
85082;BME280;75424;50.762;7.178;2024-03-17T05:27:15;101566.00;;;2.64;99.38
85082;BME280;75424;50.762;7.178;2024-03-17T05:29:40;101563.41;;;2.67;100.00
85082;BME280;75424;50.762;7.178;2024-03-17T05:32:06;101561.66;;;2.66;98.91
85082;BME280;75424;50.762;7.178;2024-03-17T05:34:31;101566.00;;;2.64;99.53
85082;BME280;75424;50.762;7.178;2024-03-17T05:36:57;101562.53;;;2.71;99.06
85082;BME280;75424;50.762;7.178;2024-03-17T05:39:23;101562.53;;;2.72;99.36
85082;BME280;75424;50.762;7.178;2024-03-17T05:41:48;101558.16;;;2.74;98.51
85082;BME280;75424;50.762;7.178;2024-03-17T05:44:17;101561.66;;;2.72;98.05
85082;BME280;75424;50.762;7.178;2024-03-17T05:46:43;101567.78;;;2.71;98.79
85082;BME280;75424;50.762;7.178;2024-03-17T05:49:08;101568.66;;;2.70;98.94
85082;BME280;75424;50.762;7.178;2024-03-17T05:51:34;101565.13;;;2.59;98.51
85082;BME280;75424;50.762;7.178;2024-03-17T05:53:59;101569.44;;;2.52;99.04
85082;BME280;75424;50.762;7.178;2024-03-17T05:56:25;101563.38;;;2.55;98.32
85082;BME280;75424;50.762;7.178;2024-03-17T05:58:50;101570.38;;;2.60;98.66
85082;BME280;75424;50.762;7.178;2024-03-17T06:01:15;101568.66;;;2.67;98.91
85082;BME280;75424;50.762;7.178;2024-03-17T06:03:41;101571.25;;;2.73;99.44
85082;BME280;75424;50.762;7.178;2024-03-17T06:06:07;101572.16;;;2.73;98.94
85082;BME280;75424;50.762;7.178;2024-03-17T06:08:36;101562.53;;;2.80;99.41
85082;BME280;75424;50.762;7.178;2024-03-17T06:11:03;101564.31;;;2.85;99.44
85082;BME280;75424;50.762;7.178;2024-03-17T06:13:29;101565.22;;;2.89;98.62
85082;BME280;75424;50.762;7.178;2024-03-17T06:15:55;101558.19;;;2.88;98.80
85082;BME280;75424;50.762;7.178;2024-03-17T06:18:25;101562.59;;;2.89;99.29
85082;BME280;75424;50.762;7.178;2024-03-17T06:20:50;101560.84;;;2.95;99.08
85082;BME280;75424;50.762;7.178;2024-03-17T06:23:16;101559.94;;;2.95;98.16
85082;BME280;75424;50.762;7.178;2024-03-17T06:25:46;101558.22;;;2.97;98.39
85082;BME280;75424;50.762;7.178;2024-03-17T06:28:16;101563.47;;;2.97;98.46
85082;BME280;75424;50.762;7.178;2024-03-17T06:30:45;101554.72;;;2.98;98.52
85082;BME280;75424;50.762;7.178;2024-03-17T06:33:16;101545.94;;;2.97;98.50
85082;BME280;75424;50.762;7.178;2024-03-17T06:35:44;101539.84;;;2.94;98.63
85082;BME280;75424;50.762;7.178;2024-03-17T06:38:09;101536.34;;;2.96;98.23
85082;BME280;75424;50.762;7.178;2024-03-17T06:40:36;101534.59;;;3.04;98.69
85082;BME280;75424;50.762;7.178;2024-03-17T06:43:01;101537.22;;;3.06;98.31
85082;BME280;75424;50.762;7.178;2024-03-17T06:45:26;101536.34;;;3.11;98.14
85082;BME280;75424;50.762;7.178;2024-03-17T06:47:52;101533.72;;;3.22;98.30
85082;BME280;75424;50.762;7.178;2024-03-17T06:50:17;101521.47;;;3.31;97.51
85082;BME280;75424;50.762;7.178;2024-03-17T06:52:43;101523.22;;;3.44;97.99
85082;BME280;75424;50.762;7.178;2024-03-17T06:55:08;101527.59;;;3.53;98.42
85082;BME280;75424;50.762;7.178;2024-03-17T06:57:34;101531.94;;;3.61;98.08
85082;BME280;75424;50.762;7.178;2024-03-17T07:00:00;101536.34;;;3.77;98.66
85082;BME280;75424;50.762;7.178;2024-03-17T07:02:26;101530.16;;;3.87;98.04
85082;BME280;75424;50.762;7.178;2024-03-17T07:04:51;101538.91;;;3.97;98.02
85082;BME280;75424;50.762;7.178;2024-03-17T07:07:16;101527.47;;;4.06;98.11
85082;BME280;75424;50.762;7.178;2024-03-17T07:09:42;101524.81;;;4.19;98.21
85082;BME280;75424;50.762;7.178;2024-03-17T07:12:09;101527.44;;;4.25;97.91
85082;BME280;75424;50.762;7.178;2024-03-17T07:14:35;101526.47;;;4.35;98.43
85082;BME280;75424;50.762;7.178;2024-03-17T07:17:00;101518.56;;;4.41;97.91
85082;BME280;75424;50.762;7.178;2024-03-17T07:19:26;101527.31;;;4.48;97.56
85082;BME280;75424;50.762;7.178;2024-03-17T07:21:51;101529.00;;;4.62;97.88
85082;BME280;75424;50.762;7.178;2024-03-17T07:24:16;101516.63;;;4.78;97.33
85082;BME280;75424;50.762;7.178;2024-03-17T07:26:42;101516.53;;;4.88;97.28
85082;BME280;75424;50.762;7.178;2024-03-17T07:29:07;101516.47;;;5.02;97.22
85082;BME280;75424;50.762;7.178;2024-03-17T07:31:33;101513.69;;;5.18;96.87
85082;BME280;75424;50.762;7.178;2024-03-17T07:33:59;101504.72;;;5.39;96.02
85082;BME280;75424;50.762;7.178;2024-03-17T07:36:24;101502.88;;;5.50;96.24
85082;BME280;75424;50.762;7.178;2024-03-17T07:38:49;101498.34;;;5.65;95.25
85082;BME280;75424;50.762;7.178;2024-03-17T07:41:16;101498.22;;;5.76;94.99
85082;BME280;75424;50.762;7.178;2024-03-17T07:43:41;101499.88;;;5.90;95.07
85082;BME280;75424;50.762;7.178;2024-03-17T07:46:07;101501.44;;;6.06;93.68
85082;BME280;75424;50.762;7.178;2024-03-17T07:48:35;101515.38;;;6.19;93.79
85082;BME280;75424;50.762;7.178;2024-03-17T07:51:06;101519.63;;;6.30;93.22
85082;BME280;75424;50.762;7.178;2024-03-17T07:53:39;101519.38;;;6.48;91.54
85082;BME280;75424;50.762;7.178;2024-03-17T07:56:09;101518.31;;;6.61;89.30
85082;BME280;75424;50.762;7.178;2024-03-17T07:58:39;101520.66;;;6.82;85.98
85082;BME280;75424;50.762;7.178;2024-03-17T08:01:07;101525.75;;;6.96;86.03
85082;BME280;75424;50.762;7.178;2024-03-17T08:03:35;101526.59;;;6.99;85.79
85082;BME280;75424;50.762;7.178;2024-03-17T08:06:04;101528.34;;;7.00;88.31
85082;BME280;75424;50.762;7.178;2024-03-17T08:08:30;101529.09;;;7.08;87.86
85082;BME280;75424;50.762;7.178;2024-03-17T08:10:56;101532.28;;;7.28;86.69
85082;BME280;75424;50.762;7.178;2024-03-17T08:13:22;101530.28;;;7.44;86.82
85082;BME280;75424;50.762;7.178;2024-03-17T08:15:59;101524.72;;;7.60;86.46
85082;BME280;75424;50.762;7.178;2024-03-17T08:18:25;101530.50;;;7.81;83.62
85082;BME280;75424;50.762;7.178;2024-03-17T08:20:52;101511.50;;;8.05;82.09
85082;BME280;75424;50.762;7.178;2024-03-17T08:23:19;101506.38;;;8.43;77.64
85082;BME280;75424;50.762;7.178;2024-03-17T08:25:58;101499.31;;;8.81;79.85
85082;BME280;75424;50.762;7.178;2024-03-17T08:28:24;101502.97;;;9.12;76.46
85082;BME280;75424;50.762;7.178;2024-03-17T08:30:51;101486.47;;;9.38;76.41
85082;BME280;75424;50.762;7.178;2024-03-17T08:33:17;101492.84;;;9.63;74.02
85082;BME280;75424;50.762;7.178;2024-03-17T08:36:01;101503.06;;;9.78;74.56
85082;BME280;75424;50.762;7.178;2024-03-17T08:38:28;101499.41;;;9.82;75.60
85082;BME280;75424;50.762;7.178;2024-03-17T08:40:55;101497.00;;;9.74;74.26
85082;BME280;75424;50.762;7.178;2024-03-17T08:43:21;101488.53;;;9.59;75.24
85082;BME280;75424;50.762;7.178;2024-03-17T08:46:00;101482.34;;;9.60;74.19
85082;BME280;75424;50.762;7.178;2024-03-17T08:48:31;101480.50;;;9.62;74.69
85082;BME280;75424;50.762;7.178;2024-03-17T08:50:57;101482.16;;;9.66;74.89
85082;BME280;75424;50.762;7.178;2024-03-17T08:53:26;101472.13;;;9.77;74.43
85082;BME280;75424;50.762;7.178;2024-03-17T08:55:53;101465.13;;;10.06;71.43
85082;BME280;75424;50.762;7.178;2024-03-17T08:58:18;101458.94;;;10.36;70.67
85082;BME280;75424;50.762;7.178;2024-03-17T09:00:44;101458.91;;;10.67;70.05
85082;BME280;75424;50.762;7.178;2024-03-17T09:03:10;101463.59;;;10.86;67.41
85082;BME280;75424;50.762;7.178;2024-03-17T09:05:40;101453.31;;;11.02;66.88
85082;BME280;75424;50.762;7.178;2024-03-17T09:08:07;101447.31;;;11.23;65.10
85082;BME280;75424;50.762;7.178;2024-03-17T09:10:41;101448.56;;;11.38;64.59
85082;BME280;75424;50.762;7.178;2024-03-17T09:13:17;101444.03;;;11.41;66.22
85082;BME280;75424;50.762;7.178;2024-03-17T09:18:31;101443.97;;;11.43;69.25
85082;BME280;75424;50.762;7.178;2024-03-17T09:23:22;101440.34;;;11.71;66.33
85082;BME280;75424;50.762;7.178;2024-03-17T09:26:00;101443.59;;;11.79;65.96
85082;BME280;75424;50.762;7.178;2024-03-17T09:28:27;101439.75;;;11.88;60.87
85082;BME280;75424;50.762;7.178;2024-03-17T09:30:53;101447.19;;;12.03;62.53
85082;BME280;75424;50.762;7.178;2024-03-17T09:33:23;101444.22;;;12.10;61.36
85082;BME280;75424;50.762;7.178;2024-03-17T09:36:04;101454.25;;;12.27;62.75
85082;BME280;75424;50.762;7.178;2024-03-17T09:38:31;101449.13;;;12.44;61.57
85082;BME280;75424;50.762;7.178;2024-03-17T09:40:57;101453.56;;;12.45;60.39
85082;BME280;75424;50.762;7.178;2024-03-17T09:43:24;101456.28;;;12.43;62.02
85082;BME280;75424;50.762;7.178;2024-03-17T09:45:53;101462.34;;;12.47;61.27
85082;BME280;75424;50.762;7.178;2024-03-17T09:48:28;101455.44;;;12.41;63.13
85082;BME280;75424;50.762;7.178;2024-03-17T09:50:58;101458.00;;;12.44;62.84
85082;BME280;75424;50.762;7.178;2024-03-17T09:53:29;101458.59;;;12.52;61.84
85082;BME280;75424;50.762;7.178;2024-03-17T09:56:03;101456.44;;;12.62;60.99
85082;BME280;75424;50.762;7.178;2024-03-17T09:58:31;101461.66;;;12.65;60.64
85082;BME280;75424;50.762;7.178;2024-03-17T10:00:56;101452.53;;;12.70;60.74
85082;BME280;75424;50.762;7.178;2024-03-17T10:06:18;101454.66;;;12.84;61.18
85082;BME280;75424;50.762;7.178;2024-03-17T10:08:44;101443.09;;;12.83;62.65
85082;BME280;75424;50.762;7.178;2024-03-17T10:11:11;101446.78;;;12.81;60.71
85082;BME280;75424;50.762;7.178;2024-03-17T10:13:37;101454.84;;;12.79;60.61
85082;BME280;75424;50.762;7.178;2024-03-17T10:16:03;101456.44;;;12.83;61.01
85082;BME280;75424;50.762;7.178;2024-03-17T10:18:30;101459.13;;;12.83;60.86
85082;BME280;75424;50.762;7.178;2024-03-17T10:20:56;101450.94;;;12.88;60.82
85082;BME280;75424;50.762;7.178;2024-03-17T10:23:23;101452.28;;;12.99;60.66
85082;BME280;75424;50.762;7.178;2024-03-17T10:25:51;101448.34;;;13.08;60.91
85082;BME280;75424;50.762;7.178;2024-03-17T10:28:20;101448.25;;;13.11;58.70
85082;BME280;75424;50.762;7.178;2024-03-17T10:30:58;101452.16;;;13.24;60.33
85082;BME280;75424;50.762;7.178;2024-03-17T10:33:27;101452.63;;;13.33;57.68
85082;BME280;75424;50.762;7.178;2024-03-17T10:36:00;101446.84;;;13.44;59.55
85082;BME280;75424;50.762;7.178;2024-03-17T10:38:27;101448.91;;;13.57;60.31
85082;BME280;75424;50.762;7.178;2024-03-17T10:40:53;101450.22;;;13.69;60.28
85082;BME280;75424;50.762;7.178;2024-03-17T10:43:19;101447.91;;;13.60;60.67
85082;BME280;75424;50.762;7.178;2024-03-17T10:45:53;101447.84;;;13.61;59.32
85082;BME280;75424;50.762;7.178;2024-03-17T10:48:20;101442.38;;;13.64;58.70
85082;BME280;75424;50.762;7.178;2024-03-17T10:50:48;101443.09;;;13.68;57.60
85082;BME280;75424;50.762;7.178;2024-03-17T10:53:17;101444.09;;;13.65;58.99
85082;BME280;75424;50.762;7.178;2024-03-17T10:55:46;101439.72;;;13.64;59.75
85082;BME280;75424;50.762;7.178;2024-03-17T10:58:44;101444.56;;;13.75;58.61
85082;BME280;75424;50.762;7.178;2024-03-17T11:01:16;101442.78;;;13.75;59.18
85082;BME280;75424;50.762;7.178;2024-03-17T11:03:46;101437.50;;;13.74;59.30
85082;BME280;75424;50.762;7.178;2024-03-17T11:06:12;101438.56;;;13.70;58.69
85082;BME280;75424;50.762;7.178;2024-03-17T11:08:39;101439.59;;;13.67;60.11
85082;BME280;75424;50.762;7.178;2024-03-17T11:11:07;101436.03;;;13.67;58.04
85082;BME280;75424;50.762;7.178;2024-03-17T11:13:34;101442.03;;;13.72;60.24
85082;BME280;75424;50.762;7.178;2024-03-17T11:16:00;101434.28;;;13.86;57.81
85082;BME280;75424;50.762;7.178;2024-03-17T11:18:33;101435.41;;;14.00;58.86
85082;BME280;75424;50.762;7.178;2024-03-17T11:21:06;101441.81;;;13.96;58.05
85082;BME280;75424;50.762;7.178;2024-03-17T11:23:41;101445.19;;;14.20;59.95
85082;BME280;75424;50.762;7.178;2024-03-17T11:26:07;101438.16;;;14.37;57.13
85082;BME280;75424;50.762;7.178;2024-03-17T11:33:57;101435.19;;;14.25;59.32
85082;BME280;75424;50.762;7.178;2024-03-17T11:38:58;101438.53;;;14.30;58.50
85082;BME280;75424;50.762;7.178;2024-03-17T11:47:03;101413.72;;;14.63;58.15
85082;BME280;75424;50.762;7.178;2024-03-17T11:52:01;101406.44;;;14.67;56.84
85082;BME280;75424;50.762;7.178;2024-03-17T11:54:29;101403.47;;;14.73;59.26
85082;BME280;75424;50.762;7.178;2024-03-17T11:57:00;101401.59;;;14.75;55.49
85082;BME280;75424;50.762;7.178;2024-03-17T11:59:26;101397.88;;;14.77;57.31
85082;BME280;75424;50.762;7.178;2024-03-17T12:01:52;101387.03;;;14.81;56.74
85082;BME280;75424;50.762;7.178;2024-03-17T12:04:19;101392.97;;;14.87;57.96
85082;BME280;75424;50.762;7.178;2024-03-17T12:06:45;101387.63;;;15.04;56.52
85082;BME280;75424;50.762;7.178;2024-03-17T12:09:30;101392.31;;;15.18;55.88
85082;BME280;75424;50.762;7.178;2024-03-17T12:12:06;101381.88;;;15.29;54.68
85082;BME280;75424;50.762;7.178;2024-03-17T12:14:33;101383.28;;;15.54;54.47
85082;BME280;75424;50.762;7.178;2024-03-17T12:17:02;101379.31;;;15.78;55.12
85082;BME280;75424;50.762;7.178;2024-03-17T12:19:30;101372.44;;;15.73;54.31
85082;BME280;75424;50.762;7.178;2024-03-17T12:22:00;101370.69;;;15.89;54.35
85082;BME280;75424;50.762;7.178;2024-03-17T12:24:27;101363.56;;;16.05;53.02
85082;BME280;75424;50.762;7.178;2024-03-17T12:26:55;101366.03;;;16.08;51.06
85082;BME280;75424;50.762;7.178;2024-03-17T12:31:58;101352.84;;;16.20;51.42
85082;BME280;75424;50.762;7.178;2024-03-17T12:34:25;101356.97;;;16.43;51.71
85082;BME280;75424;50.762;7.178;2024-03-17T12:36:53;101349.25;;;16.52;51.83
85082;BME280;75424;50.762;7.178;2024-03-17T12:39:24;101345.03;;;16.48;52.58
85082;BME280;75424;50.762;7.178;2024-03-17T12:42:08;101342.72;;;16.41;52.66
85082;BME280;75424;50.762;7.178;2024-03-17T12:44:39;101335.13;;;16.33;51.66
85082;BME280;75424;50.762;7.178;2024-03-17T12:47:07;101337.88;;;16.32;52.13
85082;BME280;75424;50.762;7.178;2024-03-17T12:49:33;101334.16;;;16.34;51.68
85082;BME280;75424;50.762;7.178;2024-03-17T12:52:02;101325.34;;;16.17;52.45
85082;BME280;75424;50.762;7.178;2024-03-17T12:54:28;101312.78;;;16.02;53.23
85082;BME280;75424;50.762;7.178;2024-03-17T12:57:07;101317.25;;;16.01;56.17
85082;BME280;75424;50.762;7.178;2024-03-17T12:59:51;101323.28;;;15.89;56.49
85082;BME280;75424;50.762;7.178;2024-03-17T13:02:40;101321.56;;;15.88;57.47
85082;BME280;75424;50.762;7.178;2024-03-17T13:05:19;101313.91;;;15.65;56.09
85082;BME280;75424;50.762;7.178;2024-03-17T13:07:48;101311.16;;;15.67;56.05
85082;BME280;75424;50.762;7.178;2024-03-17T13:10:18;101308.72;;;15.45;56.46
85082;BME280;75424;50.762;7.178;2024-03-17T13:12:44;101298.88;;;15.46;57.28
85082;BME280;75424;50.762;7.178;2024-03-17T13:15:17;101295.88;;;15.35;57.58
85082;BME280;75424;50.762;7.178;2024-03-17T13:17:43;101298.25;;;15.24;57.58
85082;BME280;75424;50.762;7.178;2024-03-17T13:20:14;101292.28;;;15.19;57.73
85082;BME280;75424;50.762;7.178;2024-03-17T13:22:44;101290.44;;;15.19;57.54
85082;BME280;75424;50.762;7.178;2024-03-17T13:25:17;101290.06;;;15.10;59.35